Latest Weather Observations for Mount Gellibrand

IDV60801

Issued at 7:32 am EDT Friday 21 January 2022 (issued every 10 minutes, with the page automatically refreshed every 10 minutes)

About weather observations | Map of weather stations | Latest weather observations for VIC | Other Formats
Station Details ID: 090035 Name: MOUNT GELLIBRAND Lat: -38.23 Lon: 143.79 Height: 261.0 m
Data from the previous 72 hours. | See also: Recent months at Mount Gellibrand
Date/Time
EDT
Temp
°C
App
Temp
°C
Dew
Point
°C
Rel
Hum
%
Delta-T
°C
Wind Press
QNH
hPa
Press
MSL
hPa
Rain since
9am
mm
Dir  Spd
km/h
Gust
km/h
Spd
kts
Gust
kts
21/07:30am 15.4 14.7 15.4 100 0.0 E 13 17 7 9 1027.4 1026.7 0.0
21/07:00am 14.6 13.2 14.6 100 0.0 E 15 19 8 10 1027.0 1026.3 0.0
21/06:30am 14.4 13.0 14.4 100 0.0 E 15 19 8 10 1026.8 1026.1 0.0
21/06:00am 14.3 12.4 14.3 100 0.0 E 17 20 9 11 1026.6 1025.9 0.0
21/05:30am 14.1 11.6 14.1 100 0.0 E 20 24 11 13 1026.6 1025.9 0.0
21/05:00am 14.2 11.4 14.2 100 0.0 E 22 26 12 14 1026.5 1025.8 0.0
21/04:30am 14.0 11.5 14.0 100 0.0 E 20 24 11 13 1026.4 1025.7 0.0
21/04:00am 14.0 10.7 14.0 100 0.0 ESE 24 30 13 16 1025.9 1025.1 0.0
21/03:30am 14.1 11.2 14.1 100 0.0 ESE 22 24 12 13 1026.0 1025.3 0.0
21/03:00am 14.3 11.1 14.3 100 0.0 E 24 26 13 14 1026.2 1025.5 0.0
21/02:30am 14.4 11.3 14.4 100 0.0 E 24 26 13 14 1026.2 1025.5 0.0
21/02:00am 14.2 10.2 14.2 100 0.0 ESE 28 32 15 17 1026.2 1025.5 0.0
21/01:30am 14.4 10.1 14.4 100 0.0 ESE 30 35 16 19 1026.1 1025.4 0.0
21/01:00am 14.7 10.5 14.7 100 0.0 ESE 30 37 16 20 1025.9 1025.1 0.0
21/12:30am 14.9 10.8 14.9 100 0.0 ESE 30 35 16 19 1026.0 1025.3 0.0
21/12:00am 15.2 10.8 15.2 100 0.0 ESE 32 37 17 20 1026.1 1025.4 0.0
 
Date/Time
EDT
Temp
°C
App
Temp
°C
Dew
Point
°C
Rel
Hum
%
Delta-T
°C
Wind Press
QNH
hPa
Press
MSL
hPa
Rain since
9am
mm
Dir  Spd
km/h
Gust
km/h
Spd
kts
Gust
kts
20/11:30pm 15.4 10.9 15.4 100 0.0 ESE 33 39 18 21 1026.0 1025.3 0.0
20/11:00pm 15.6 11.4 15.6 100 0.0 ESE 32 39 17 21 1026.0 1025.3 0.0
20/10:30pm 15.7 11.3 15.7 100 0.0 SE 33 39 18 21 1026.0 1025.3 0.0
20/10:00pm 15.9 11.7 15.6 98 0.2 SE 32 39 17 21 1026.0 1025.3 0.0
20/09:30pm 16.2 12.0 15.6 96 0.4 SE 32 37 17 20 1025.8 1025.0 0.0
20/09:00pm 16.8 12.4 15.2 90 0.9 SE 32 41 17 22 1025.7 1024.9 0.0
20/08:30pm 17.6 12.9 14.9 84 1.6 SE 33 43 18 23 1025.6 1024.8 0.0
20/08:00pm 18.8 13.9 13.6 72 3.0 ESE 32 41 17 22 1025.5 1024.7 0.0
20/07:30pm 19.7 14.7 13.4 67 3.6 ESE 32 41 17 22 1025.4 1024.6 0.0
20/07:00pm 20.8 14.7 13.0 61 4.5 SE 37 44 20 24 1025.2 1024.4 0.0
20/06:30pm 21.5 15.1 12.1 55 5.3 SE 37 46 20 25 1025.2 1024.4 0.0
20/06:00pm 22.1 15.8 12.4 54 5.5 SE 37 44 20 24 1025.3 1024.5 0.0
20/05:30pm 22.5 16.1 11.9 51 6.0 ESE 37 46 20 25 1025.5 1024.7 0.0
20/05:00pm 23.0 15.6 11.1 47 6.7 ESE 41 50 22 27 1025.7 1024.9 0.0
20/04:30pm 23.5 16.9 11.2 46 7.0 SE 37 48 20 26 1026.0 1025.3 0.0
20/04:00pm 23.5 16.5 11.2 46 6.9 ESE 39 52 21 28 1026.2 1025.5 0.0
20/03:30pm 24.0 17.8 11.3 45 7.2 ESE 35 48 19 26 1026.5 1025.8 0.0
20/03:00pm 23.9 17.8 11.6 46 7.0 SE 35 46 19 25 1026.6 1025.9 0.0
20/02:33pm 23.6 17.5 11.6 47 6.8 SE 35 56 19 30 1026.7 1026.0 0.0
20/02:30pm 23.5 17.2 11.2 46 7.0 ESE 35 46 19 25 1026.8 1026.1 0.0
20/02:01pm 23.4 16.9 10.5 44 7.2 ESE 35 54 19 29 1027.1 1026.4 0.0
20/02:00pm 23.4 16.6 10.5 44 7.2 ESE 37 54 20 29 1027.1 1026.4 0.0
20/01:52pm 22.7 16.6 10.5 46 6.8 ESE 33 54 18 29 1027.2 1026.5 0.0
20/01:30pm 23.5 17.8 11.2 46 7.0 ESE 32 44 17 24 1027.4 1026.7 0.0
20/01:00pm 22.8 17.1 11.2 48 6.5 ESE 32 44 17 24 1028.0 1027.2 0.0
20/12:30pm 22.7 17.4 11.1 48 6.5 ESE 30 37 16 20 1028.3 1027.5 0.0
20/12:00pm 22.1 17.2 11.2 50 6.1 ESE 28 39 15 21 1028.3 1027.5 0.0
20/11:30am 21.4 16.3 10.6 50 6.0 ESE 28 37 15 20 1028.6 1027.8 0.0
20/11:00am 20.8 14.9 10.3 51 5.7 ESE 32 41 17 22 1028.6 1027.8 0.0
20/10:30am 20.4 14.8 10.2 52 5.6 ESE 30 41 16 22 1028.8 1028.0 0.0
20/10:00am 19.5 13.7 10.8 57 4.8 E 32 41 17 22 1028.5 1027.7 0.0
20/09:30am 18.5 12.2 11.1 62 4.1 E 35 43 19 23 1028.5 1027.7 0.0
20/09:00am 17.8 11.9 11.1 65 3.6 E 33 46 18 25 1028.5 1027.7 0.0
20/08:30am 16.6 9.2 11.1 70 3.0 ESE 41 52 22 28 1028.1 1027.3 0.0
20/08:00am 15.9 9.4 11.7 76 2.3 ESE 37 46 20 25 1027.8 1027.1 0.0
20/07:30am 14.9 8.6 12.4 85 1.4 ESE 37 46 20 25 1027.8 1027.1 0.0
20/07:00am 13.8 8.1 13.0 95 0.4 ESE 35 43 19 23 1027.8 1027.1 0.0
20/06:30am 13.5 8.0 13.5 100 0.0 ESE 35 43 19 23 1027.4 1026.7 0.0
20/06:00am 13.5 7.6 13.5 100 0.0 ESE 37 44 20 24 1027.0 1026.3 0.0
20/05:30am 13.6 8.0 13.4 99 0.1 ESE 35 46 19 25 1027.0 1026.3 0.0
20/05:00am 13.7 7.0 13.5 99 0.1 ESE 41 50 22 27 1026.5 1025.8 0.0
20/04:30am 13.7 7.1 13.7 100 0.0 ESE 41 50 22 27 1026.2 1025.5 0.0
20/04:00am 13.7 7.8 13.7 100 0.0 ESE 37 46 20 25 1026.1 1025.4 0.0
20/03:30am 13.6 7.7 13.6 100 0.0 ESE 37 44 20 24 1026.2 1025.5 0.0
20/03:00am 13.7 7.8 13.7 100 0.0 ESE 37 44 20 24 1026.5 1025.8 0.0
20/02:30am 13.7 7.4 13.5 99 0.1 ESE 39 48 21 26 1026.6 1025.9 0.0
20/02:00am 13.9 8.4 13.7 99 0.1 ESE 35 48 19 26 1027.0 1026.3 0.0
20/01:30am 14.1 7.2 14.1 100 0.0 ESE 43 52 23 28 1026.6 1025.9 0.0
20/01:00am 14.4 8.3 14.2 99 0.1 ESE 39 48 21 26 1027.0 1026.3 0.0
20/12:30am 14.5 9.2 14.3 99 0.1 ESE 35 44 19 24 1026.9 1026.2 0.0
20/12:00am 14.8 8.8 14.3 97 0.3 ESE 39 50 21 27 1026.7 1026.0 0.0
 
Date/Time
EDT
Temp
°C
App
Temp
°C
Dew
Point
°C
Rel
Hum
%
Delta-T
°C
Wind Press
QNH
hPa
Press
MSL
hPa
Rain since
9am
mm
Dir  Spd
km/h
Gust
km/h
Spd
kts
Gust
kts
19/11:30pm 14.9 9.9 14.1 95 0.5 ESE 33 43 18 23 1026.6 1025.9 0.0
19/11:00pm 15.1 9.5 14.5 96 0.3 ESE 37 44 20 24 1026.3 1025.6 0.0
19/10:30pm 15.4 9.8 14.4 94 0.6 ESE 37 44 20 24 1026.2 1025.5 0.0
19/10:00pm 15.4 8.8 14.8 96 0.3 SE 43 54 23 29 1025.6 1024.8 0.0
19/09:30pm 15.6 8.8 14.8 95 0.5 ESE 44 56 24 30 1025.4 1024.6 0.0
19/09:00pm 16.1 9.6 14.1 88 1.1 ESE 41 50 22 27 1025.3 1024.5 0.0
19/08:30pm 16.5 9.6 12.7 78 2.1 ESE 41 52 22 28 1025.2 1024.4 0.0
19/08:00pm 17.4 9.1 11.4 68 3.3 ESE 46 59 25 32 1024.6 1023.8 0.0
19/07:30pm 18.3 10.0 11.4 64 3.8 ESE 46 56 25 30 1024.3 1023.5 0.0
19/07:00pm 19.0 11.2 11.1 60 4.3 ESE 43 56 23 30 1024.2 1023.4 0.0
19/06:30pm 19.5 11.2 11.3 59 4.6 ESE 46 57 25 31 1023.7 1023.0 0.0
19/06:00pm 19.3 9.2 10.3 56 4.9 ESE 54 65 29 35 1023.6 1022.9 0.0
19/05:30pm 20.3 10.2 10.4 53 5.4 ESE 54 69 29 37 1023.9 1023.1 0.0
19/05:00pm 20.3 9.3 10.4 53 5.4 ESE 59 72 32 39 1023.6 1022.9 0.0
19/04:42pm 20.8 10.5 10.9 53 5.5 SE 56 74 30 40 1023.7 1023.0 0.0
19/04:30pm 21.0 10.5 11.1 53 5.5 SE 57 70 31 38 1023.6 1022.9 0.0
19/04:00pm 21.6 11.0 10.7 50 6.0 ESE 57 70 31 38 1023.3 1022.6 0.0
19/03:30pm 22.1 12.1 10.6 48 6.4 ESE 54 72 29 39 1023.2 1022.5 0.0
19/03:00pm 22.2 12.9 11.9 52 5.8 ESE 52 67 28 36 1023.4 1022.7 0.0
19/02:30pm 22.0 12.5 12.3 54 5.5 ESE 54 69 29 37 1023.6 1022.9 0.0
19/02:00pm 21.9 12.5 12.7 56 5.3 ESE 54 67 29 36 1023.5 1022.8 0.0
19/01:30pm 21.9 11.9 12.2 54 5.5 ESE 56 67 30 36 1023.5 1022.8 0.0
19/01:00pm 21.7 12.9 12.3 55 5.3 ESE 50 65 27 35 1023.5 1022.8 0.0
19/12:30pm 21.6 12.6 11.6 53 5.6 ESE 50 69 27 37 1023.4 1022.7 0.0
19/12:00pm 21.4 12.5 12.0 55 5.3 ESE 50 67 27 36 1023.4 1022.7 0.0
19/11:30am 21.5 11.9 12.1 55 5.3 ESE 54 67 29 36 1023.2 1022.5 0.0
19/11:00am 20.0 10.8 12.3 61 4.3 ESE 52 65 28 35 1023.3 1022.6 0.0
19/10:30am 20.9 12.2 12.6 59 4.7 ESE 50 63 27 34 1023.0 1022.3 0.0
19/10:00am 20.1 11.0 13.8 67 3.7 ESE 54 67 29 36 1023.0 1022.3 0.0
19/09:30am 19.8 10.6 13.3 66 3.7 ESE 54 69 29 37 1022.6 1021.8 0.0
19/09:00am 18.9 9.9 14.0 73 2.8 ESE 54 72 29 39 1022.2 1021.4 0.0
19/08:30am 18.4 10.9 15.1 81 2.0 ESE 48 61 26 33 1021.6 1020.8 0.0
19/08:00am 17.3 10.3 16.2 93 0.7 ESE 48 61 26 33 1021.1 1020.3 0.0
19/07:30am 16.6 10.1 16.6 100 0.0 ESE 46 59 25 32 1020.8 1020.0 0.0
19/07:00am 15.9 9.5 15.9 100 0.0 ESE 44 54 24 29 1020.4 1019.6 0.0
19/06:30am 15.4 9.8 15.4 100 0.0 SE 39 48 21 26 1020.2 1019.4 0.0
19/06:00am 14.9 9.8 14.9 100 0.0 ESE 35 44 19 24 1019.9 1019.1 0.0
19/05:30am 14.0 9.2 14.0 100 0.0 SE 32 39 17 21 1019.6 1018.9 0.0
19/05:00am 13.8 8.9 13.8 100 0.0 SE 32 39 17 21 1019.5 1018.8 0.0
19/04:30am 13.3 9.0 13.3 100 0.0 SE 28 32 15 17 1019.5 1018.8 0.0
19/04:00am 13.5 9.7 13.5 100 0.0 SE 26 32 14 17 1019.4 1018.7 0.0
19/03:30am 13.5 10.4 13.5 100 0.0 SE 22 28 12 15 1019.3 1018.5 0.0
19/03:00am 13.7 11.3 13.7 100 0.0 SSE 19 26 10 14 1019.3 1018.5 0.0
19/02:30am 14.1 12.2 14.1 100 0.0 SE 17 24 9 13 1019.5 1018.8 0.0
19/02:00am 13.8 11.4 13.8 100 0.0 SSE 19 22 10 12 1019.6 1018.9 0.0
19/01:30am 13.3 11.0 13.1 99 0.1 SSE 17 22 9 12 1019.7 1019.0 0.0
19/01:00am 13.1 10.3 12.6 97 0.3 S 19 24 10 13 1019.9 1019.1 0.0
19/12:30am 12.8 9.2 12.0 95 0.4 S 22 28 12 15 1019.9 1019.1 0.0
19/12:00am 12.5 8.9 11.7 95 0.4 SSE 22 28 12 15 1019.7 1019.0 0.0
 
Date/Time
EDT
Temp
°C
App
Temp
°C
Dew
Point
°C
Rel
Hum
%
Delta-T
°C
Wind Press
QNH
hPa
Press
MSL
hPa
Rain since
9am
mm
Dir  Spd
km/h
Gust
km/h
Spd
kts
Gust
kts
18/11:30pm 12.8 8.2 11.2 90 0.9 SSE 26 32 14 17 1019.9 1019.1 0.0
18/11:00pm 13.1 9.0 11.3 89 1.0 SSE 24 32 13 17 1019.9 1019.1 0.0
18/10:30pm 13.5 10.0 11.0 85 1.3 SSE 20 28 11 15 1020.0 1019.2 0.0
18/10:00pm 14.0 10.5 10.8 81 1.7 SSE 20 28 11 15 1020.0 1019.2 0.0
18/09:30pm 14.1 10.8 10.9 81 1.7 SSE 19 26 10 14 1020.0 1019.2 0.0
18/09:00pm 14.3 10.9 10.7 79 1.9 SSE 19 26 10 14 1019.6 1018.9 0.0
18/08:30pm 14.6 10.6 9.2 70 2.8 SSE 20 24 11 13 1019.2 1018.4 0.0
18/08:00pm 14.7 10.7 9.1 69 2.9 SSE 20 28 11 15 1018.7 1017.9 0.0
18/07:30pm 14.8 9.8 9.6 71 2.7 SSE 26 32 14 17 1018.0 1017.2 0.0
18/07:00pm 14.9 10.9 10.3 74 2.4 SSE 22 30 12 16 1018.1 1017.3 0.0
18/06:30pm 14.8 10.0 10.4 75 2.3 SSE 26 32 14 17 1017.9 1017.1 0.0
18/06:00pm 16.4 12.0 8.9 61 3.9 SSE 22 32 12 17 1017.9 1017.1 0.0
18/05:30pm 15.8 10.3 9.0 64 3.5 SSE 28 35 15 19 1017.7 1016.9 0.0
18/05:00pm 15.9 10.4 9.3 65 3.4 SSE 28 37 15 20 1017.7 1016.9 0.0
18/04:30pm 16.9 11.3 8.6 58 4.3 SSE 28 35 15 19 1017.8 1017.0 0.0
18/04:00pm 18.5 13.6 10.1 58 4.5 SE 26 37 14 20 1017.6 1016.8 0.0
18/03:30pm 18.0 12.6 8.0 52 5.2 SE 26 32 14 17 1017.5 1016.7 0.0
18/03:00pm 17.7 13.7 9.1 57 4.5 SSE 20 28 11 15 1017.6 1016.8 0.0
18/02:30pm 17.9 14.2 9.3 57 4.6 SSE 19 24 10 13 1017.9 1017.1 0.0
18/02:00pm 17.6 12.3 9.8 60 4.2 S 28 35 15 19 1017.8 1017.0 0.0
18/01:30pm 18.4 14.3 8.7 53 5.1 SSE 20 28 11 15 1018.0 1017.2 0.0
18/01:00pm 17.4 12.3 9.3 59 4.3 SSE 26 33 14 18 1018.2 1017.4 0.0
18/12:30pm 15.5 12.4 11.5 77 2.2 S 19 28 10 15 1018.2 1017.4 0.0
18/12:00pm 15.5 10.6 10.1 70 2.9 S 26 35 14 19 1017.9 1017.1 0.0
18/11:30am 17.6 14.0 8.5 55 4.7 SSW 17 28 9 15 1017.8 1017.0 0.0
18/11:00am 17.2 12.1 7.5 53 4.9 SSE 24 32 13 17 1018.0 1017.2 0.0
18/10:30am 16.7 13.0 7.9 56 4.5 SSE 17 26 9 14 1017.7 1016.9 0.0
18/10:00am 15.7 11.8 9.4 66 3.3 S 20 28 11 15 1017.7 1016.9 0.0
18/09:30am 15.1 11.9 9.9 71 2.7 S 17 20 9 11 1017.7 1016.9 0.0
18/09:00am 14.7 11.5 9.9 73 2.5 S 17 22 9 12 1017.6 1016.8 0.0
18/08:30am 14.6 12.8 11.0 79 1.9 S 11 15 6 8 1017.1 1016.3 0.0
18/08:00am 13.3 11.5 10.8 85 1.3 SSW 11 15 6 8 1016.9 1016.1 0.0

Other formats

Comma delimited format used in spreadsheet applications
http://www.bom.gov.au/fwo/IDV60801/IDV60801.95845.axf

JavaScript Object Notation format (JSON) in row-major order
http://www.bom.gov.au/fwo/IDV60801/IDV60801.95845.json

Data quality

Most of these data are generated automatically and are frequently updated. Quality checks on data are not normally performed. It is possible for incorrect values to appear. Refer to information at About Latest Weather Observations and please check the disclaimer before using these data.